Midkiff, West Virginia
Current Conditions -  °F | °C
As of 8:51 AM on Sunday 25 Jan 2015 (Local Time) from KHTS Reporting Station
Clear Clear  
Wind Chill: 35°   Ceiling: Unl
Heat Index: 35°   Visibility: 10mi
Dew Point: 31°   Wind: 3mph
Humidity: 85%   Direction: 180°S
Pressure: 29.78"   Gusts: NA
Location:  38.18°N, 82.18°W
Report Text: KHTS 251351Z 18003KT 10SM CLR 02/M01 A2978 RMK AO2 SLP088 T00171006
Loading
Personal Weather Stations






























Interactive Weather Map New forecast layout! Learn more

10-Day Weather Forecast

Advertisements
Track Severe Weather on mobile